KOSH/OSH METAR and TAF weather

Enter ICAO airport designator
Station Type Date Time Source
KOSH METAR 2021/01/17 19:13 UTC NOAA

KOSH 171913Z 00000KT 9SM BKN015 BKN021 OVC028 M01/M04 A2969 RMK AO2 T10111044


Station Type Date Time Source
KOSH Decoded METAR 2021/01/17 19:13 UTC NOAA

WITTMAN REGIONAL AIRPORT, WI, United States (KOSH) 43-58N 88-33W 248M
Jan 17, 2021 - 02:13 PM EST / 2021.01.17 1913 UTC
Wind: Calm:0
Visibility: 9 mile(s):0
Sky conditions: overcast
Temperature: 30.0 F (-1.1 C)
Dew Point: 24.1 F (-4.4 C)
Relative Humidity: 78%
Pressure (altimeter): 29.69 in. Hg (1005 hPa)
ob: KOSH 171913Z 00000KT 9SM BKN015 BKN021 OVC028 M01/M04 A2969 RMK AO2 T10111044
cycle: 19

Station Type Date Time Source
KOSH TAF 2020/07/18 21:24 UTC NOAA

TAF
AMD KOSH 182120Z 1821/1918 21009G18KT P6SM SCT110
FM190200 21009KT P6SM VCTS SCT100CB
FM190900 23011KT P6SM TSRA OVC030CB
FM191000 23011G19KT P6SM VCTS OVC040CB
FM191100 24011KT P6SM OVC021
FM191300 27011KT P6SM BKN045

Example: see airport list